Time;durP1;ratioP1;P1;durP2;ratioP2;P2;SDS_P1;SDS_P2;PMS_P1;PMS_P2;Temp;Humidity;BMP_temperature;BMP_pressure;BME280_temperature;BME280_humidity;BME280_pressure;Samples;Min_cycle;Max_cycle;Signal;HPM_P1;HPM_P2
2023/01/09 00:01:27;;;;;;;1.30;1.15;;;;;;;;;;4917989;29;20063;-61
2023/01/09 00:03:54;;;;;;;1.42;1.33;;;;;;;;;;4917132;29;20048;-60
2023/01/09 00:06:21;;;;;;;2.05;1.33;;;;;;;;;;4916580;29;20453;-62
2023/01/09 00:08:47;;;;;;;2.35;1.52;;;;;;;;;;4918180;29;20050;-63
2023/01/09 00:11:14;;;;;;;1.35;1.25;;;;;;;;;;4918027;29;20502;-60
2023/01/09 00:13:40;;;;;;;1.65;1.50;;;;;;;;;;4918018;29;20055;-60
2023/01/09 00:16:07;;;;;;;2.95;1.30;;;;;;;;;;4932406;29;20079;-61
2023/01/09 00:18:34;;;;;;;1.50;1.17;;;;;;;;;;4918074;29;20520;-60
2023/01/09 00:21:01;;;;;;;1.15;1.05;;;;;;;;;;4918125;29;20091;-61
2023/01/09 00:23:27;;;;;;;1.85;1.15;;;;;;;;;;4917845;29;20051;-60
2023/01/09 00:26:01;;;;;;;1.20;1.10;;;;;;;;;;4917337;29;20044;-60
2023/01/09 00:28:27;;;;;;;1.20;1.10;;;;;;;;;;4917683;29;20067;-61
2023/01/09 00:30:57;;;;;;;1.67;1.30;;;;;;;;;;4917537;29;20048;-61
2023/01/09 00:33:34;;;;;;;3.28;1.30;;;;;;;;;;4916204;29;20417;-60
2023/01/09 00:36:01;;;;;;;1.25;1.15;;;;;;;;;;4916896;29;20091;-61
2023/01/09 00:38:27;;;;;;;1.25;1.02;;;;;;;;;;4917698;29;20072;-61
2023/01/09 00:40:54;;;;;;;1.50;1.10;;;;;;;;;;4915791;29;20111;-60
2023/01/09 00:43:22;;;;;;;1.45;1.35;;;;;;;;;;4917206;29;20076;-60
2023/01/09 00:45:49;;;;;;;2.00;1.10;;;;;;;;;;4916915;29;20044;-61
2023/01/09 00:48:23;;;;;;;2.08;1.05;;;;;;;;;;4917667;29;20052;-61
2023/01/09 00:50:50;;;;;;;2.45;1.00;;;;;;;;;;4917695;29;20052;-61
2023/01/09 00:53:18;;;;;;;1.10;1.00;;;;;;;;;;4917036;29;20048;-61
2023/01/09 00:55:45;;;;;;;1.00;1.00;;;;;;;;;;4916700;29;20115;-61
2023/01/09 00:58:12;;;;;;;1.88;1.08;;;;;;;;;;4917208;29;20048;-61
2023/01/09 01:00:38;;;;;;;1.25;1.02;;;;;;;;;;4917021;29;20417;-61
2023/01/09 01:03:04;;;;;;;1.20;1.10;;;;;;;;;;4916951;29;20096;-61
2023/01/09 01:08:17;;;;;;;1.05;0.95;;;;;;;;;;4917170;29;20040;-60
2023/01/09 01:10:44;;;;;;;1.00;0.93;;;;;;;;;;4917326;29;20044;-60
2023/01/09 01:13:11;;;;;;;2.03;1.08;;;;;;;;;;4917684;29;20040;-61
2023/01/09 01:15:39;;;;;;;20.23;2.03;;;;;;;;;;4934071;29;20497;-60
2023/01/09 01:18:06;;;;;;;0.82;0.77;;;;;;;;;;4920175;29;20052;-60
2023/01/09 01:20:33;;;;;;;0.70;0.70;;;;;;;;;;4921654;29;20051;-61
2023/01/09 01:22:59;;;;;;;1.35;0.80;;;;;;;;;;4922392;29;20044;-60
2023/01/09 01:25:26;;;;;;;0.80;0.70;;;;;;;;;;4922462;29;20044;-61
2023/01/09 01:27:52;;;;;;;0.82;0.80;;;;;;;;;;4922064;29;20051;-61
2023/01/09 01:30:18;;;;;;;0.70;0.70;;;;;;;;;;4921159;29;20044;-60
2023/01/09 01:32:45;;;;;;;0.70;0.70;;;;;;;;;;4921492;29;20052;-61
2023/01/09 01:35:11;;;;;;;1.85;0.65;;;;;;;;;;4920885;29;20044;-59
2023/01/09 01:37:38;;;;;;;1.55;0.85;;;;;;;;;;4935114;29;20052;-60
2023/01/09 01:40:06;;;;;;;0.98;0.88;;;;;;;;;;4920026;29;20044;-61
2023/01/09 01:42:32;;;;;;;0.57;0.57;;;;;;;;;;4919118;29;20040;-61
2023/01/09 01:45:11;;;;;;;0.88;0.60;;;;;;;;;;4917498;29;20048;-60
2023/01/09 01:47:57;;;;;;;0.77;0.77;;;;;;;;;;4915517;29;20087;-61
2023/01/09 01:50:27;;;;;;;0.60;0.60;;;;;;;;;;4906111;29;20501;-60
2023/01/09 01:53:05;;;;;;;0.60;0.60;;;;;;;;;;4916221;29;20131;-60
2023/01/09 01:55:37;;;;;;;0.60;0.60;;;;;;;;;;4914919;29;20036;-60
2023/01/09 01:58:04;;;;;;;0.50;0.50;;;;;;;;;;4915277;29;20052;-61
2023/01/09 02:00:32;;;;;;;0.95;0.60;;;;;;;;;;4932181;29;20458;-60
2023/01/09 02:03:00;;;;;;;0.50;0.50;;;;;;;;;;4917269;29;20409;-61
2023/01/09 02:05:27;;;;;;;0.73;0.43;;;;;;;;;;4916201;29;20520;-63
2023/01/09 02:07:53;;;;;;;2.10;0.70;;;;;;;;;;4916651;29;20048;-61
2023/01/09 02:10:22;;;;;;;0.93;0.50;;;;;;;;;;4916458;29;20449;-61
2023/01/09 02:12:49;;;;;;;0.50;0.50;;;;;;;;;;4914900;29;20044;-60
2023/01/09 02:15:16;;;;;;;0.60;0.50;;;;;;;;;;4915930;29;20450;-60
2023/01/09 02:17:43;;;;;;;0.50;0.50;;;;;;;;;;4916129;29;20107;-61
2023/01/09 02:20:09;;;;;;;0.60;0.60;;;;;;;;;;4916117;29;20565;-61
2023/01/09 02:22:43;;;;;;;1.70;0.70;;;;;;;;;;4915888;29;20052;-61
2023/01/09 02:25:09;;;;;;;;;;;;;;;;;;4916225;29;20412;-61
2023/01/09 02:27:46;;;;;;;0.60;0.60;;;;;;;;;;4930507;29;19966;-60
2023/01/09 02:30:28;;;;;;;1.80;0.70;;;;;;;;;;4915906;29;20045;-60
2023/01/09 02:32:55;;;;;;;0.88;0.60;;;;;;;;;;4914547;29;20409;-60
2023/01/09 02:35:37;;;;;;;0.68;0.60;;;;;;;;;;4915460;29;20498;-60
2023/01/09 02:38:22;;;;;;;0.85;0.63;;;;;;;;;;4930602;29;20051;-61
2023/01/09 02:40:53;;;;;;;0.63;0.50;;;;;;;;;;4930444;29;20103;-61
2023/01/09 02:43:20;;;;;;;1.58;0.60;;;;;;;;;;4915682;29;20494;-61
2023/01/09 02:45:46;;;;;;;1.15;0.65;;;;;;;;;;4914106;29;20120;-61
2023/01/09 02:48:12;;;;;;;1.27;0.50;;;;;;;;;;4915722;29;20044;-61
2023/01/09 02:50:54;;;;;;;0.52;0.52;;;;;;;;;;4930225;29;20505;-61
2023/01/09 02:53:27;;;;;;;0.50;0.50;;;;;;;;;;4930216;29;20095;-61
2023/01/09 02:56:12;;;;;;;0.80;0.60;;;;;;;;;;4914957;29;20052;-61
2023/01/09 02:59:03;;;;;;;0.90;0.60;;;;;;;;;;4915411;29;20489;-61
2023/01/09 03:01:53;;;;;;;0.85;0.60;;;;;;;;;;4915270;29;20526;-61
2023/01/09 03:04:27;;;;;;;1.52;0.70;;;;;;;;;;4910421;29;20099;-61
2023/01/09 03:07:01;;;;;;;0.95;0.60;;;;;;;;;;4919118;29;20531;-61
2023/01/09 03:09:30;;;;;;;1.23;0.60;;;;;;;;;;4921513;29;20048;-61
2023/01/09 03:12:06;;;;;;;0.77;0.68;;;;;;;;;;4926252;29;20056;-61
2023/01/09 03:14:33;;;;;;;0.70;0.60;;;;;;;;;;4925153;29;20055;-61
2023/01/09 03:17:02;;;;;;;8.23;1.90;;;;;;;;;;4918868;29;20568;-61
2023/01/09 03:19:30;;;;;;;0.90;0.77;;;;;;;;;;4933145;29;20498;-61
2023/01/09 03:21:58;;;;;;;2.03;0.70;;;;;;;;;;4918615;29;20095;-61
2023/01/09 03:24:24;;;;;;;1.38;0.70;;;;;;;;;;4918263;29;20863;-60
2023/01/09 03:26:53;;;;;;;0.93;0.73;;;;;;;;;;4918744;29;20048;-61
2023/01/09 03:29:20;;;;;;;0.55;0.55;;;;;;;;;;4918580;29;20044;-61
2023/01/09 03:31:46;;;;;;;1.30;0.93;;;;;;;;;;4918529;29;20048;-61
2023/01/09 03:34:12;;;;;;;2.17;1.00;;;;;;;;;;4918015;29;20048;-61
2023/01/09 03:36:39;;;;;;;2.35;0.70;;;;;;;;;;4918667;29;20402;-60
2023/01/09 03:39:05;;;;;;;0.88;0.70;;;;;;;;;;4918456;29;20099;-61
2023/01/09 03:41:32;;;;;;;1.95;0.93;;;;;;;;;;4933020;29;20043;-60
2023/01/09 03:43:58;;;;;;;1.92;1.10;;;;;;;;;;4918327;29;20432;-60
2023/01/09 03:46:24;;;;;;;1.60;0.80;;;;;;;;;;4932516;29;20099;-61
2023/01/09 03:48:51;;;;;;;0.77;0.60;;;;;;;;;;4918449;29;20523;-61
2023/01/09 03:51:17;;;;;;;0.60;0.60;;;;;;;;;;4918275;29;20055;-60
2023/01/09 03:53:44;;;;;;;1.63;0.75;;;;;;;;;;4918318;29;20115;-60
2023/01/09 03:56:10;;;;;;;1.75;0.70;;;;;;;;;;4918046;29;20056;-60
2023/01/09 03:58:36;;;;;;;0.93;0.60;;;;;;;;;;4918122;29;20112;-61
2023/01/09 04:01:04;;;;;;;0.75;0.70;;;;;;;;;;4918188;29;20067;-61
2023/01/09 04:03:30;;;;;;;1.05;0.52;;;;;;;;;;4918035;29;20048;-61
2023/01/09 04:05:57;;;;;;;0.60;0.60;;;;;;;;;;4917577;29;20040;-60
2023/01/09 04:08:23;;;;;;;1.65;1.02;;;;;;;;;;4918320;29;20052;-60
2023/01/09 04:10:50;;;;;;;0.52;0.52;;;;;;;;;;4917976;29;20048;-61
2023/01/09 04:13:16;;;;;;;0.73;0.73;;;;;;;;;;4918101;29;20288;-61
2023/01/09 04:15:43;;;;;;;0.63;0.60;;;;;;;;;;4916760;29;20051;-61
2023/01/09 04:18:09;;;;;;;1.00;0.80;;;;;;;;;;4918193;29;20048;-60
2023/01/09 04:20:36;;;;;;;1.05;0.80;;;;;;;;;;4917885;29;20324;-61
2023/01/09 04:23:02;;;;;;;3.10;1.13;;;;;;;;;;4917662;29;20052;-61
2023/01/09 04:25:28;;;;;;;1.63;0.88;;;;;;;;;;4915759;29;20055;-61
2023/01/09 04:27:55;;;;;;;1.13;0.88;;;;;;;;;;4917549;29;20044;-61
2023/01/09 04:30:21;;;;;;;1.95;0.73;;;;;;;;;;4931954;29;20048;-61
2023/01/09 04:32:48;;;;;;;2.63;0.70;;;;;;;;;;4917443;29;20047;-61
2023/01/09 04:35:14;;;;;;;0.88;0.77;;;;;;;;;;4916962;29;20074;-61
2023/01/09 04:37:41;;;;;;;0.85;0.82;;;;;;;;;;4917432;29;20425;-61
2023/01/09 04:40:08;;;;;;;1.40;0.80;;;;;;;;;;4917161;29;20048;-61
2023/01/09 04:42:35;;;;;;;2.95;1.00;;;;;;;;;;4917222;29;20040;-61
2023/01/09 04:45:01;;;;;;;0.90;0.73;;;;;;;;;;4916976;29;20482;-60
2023/01/09 04:47:30;;;;;;;1.48;0.93;;;;;;;;;;4917274;29;20036;-61
2023/01/09 04:49:56;;;;;;;1.30;0.70;;;;;;;;;;4917805;29;20043;-61
2023/01/09 04:52:23;;;;;;;1.08;0.63;;;;;;;;;;4916131;29;20048;-61
2023/01/09 04:54:49;;;;;;;2.25;0.85;;;;;;;;;;4915292;29;20083;-60
2023/01/09 04:57:16;;;;;;;1.05;0.85;;;;;;;;;;4917160;29;20453;-61
2023/01/09 04:59:42;;;;;;;1.88;0.90;;;;;;;;;;4917070;29;20040;-61
2023/01/09 05:02:09;;;;;;;3.53;0.75;;;;;;;;;;5355771;23;20054;-59
2023/01/09 05:04:36;;;;;;;3.40;1.50;;;;;;;;;;4954693;28;20067;-60
2023/01/09 05:07:02;;;;;;;2.65;0.95;;;;;;;;;;4954128;29;20055;-59
2023/01/09 05:09:29;;;;;;;2.40;0.65;;;;;;;;;;4955066;29;20419;-59
2023/01/09 05:11:55;;;;;;;1.88;0.77;;;;;;;;;;4957249;28;20047;-61
2023/01/09 05:14:27;;;;;;;1.58;0.77;;;;;;;;;;4955751;29;20111;-61
2023/01/09 05:16:58;;;;;;;1.60;0.82;;;;;;;;;;4956185;28;20067;-61
2023/01/09 05:19:25;;;;;;;3.80;1.00;;;;;;;;;;4957109;28;20059;-59
2023/01/09 05:21:53;;;;;;;3.13;0.80;;;;;;;;;;4957284;29;20403;-60
2023/01/09 05:24:22;;;;;;;4.60;1.00;;;;;;;;;;4957450;28;20098;-60
2023/01/09 05:26:48;;;;;;;4.88;1.25;;;;;;;;;;4957053;28;20047;-60
2023/01/09 05:29:15;;;;;;;5.10;1.05;;;;;;;;;;4962038;29;20050;-60
2023/01/09 05:31:41;;;;;;;4.05;0.98;;;;;;;;;;4961695;29;20495;-59
2023/01/09 05:34:08;;;;;;;3.08;1.13;;;;;;;;;;4955908;29;20075;-60
2023/01/09 05:36:34;;;;;;;6.07;1.08;;;;;;;;;;4954891;29;20525;-60
2023/01/09 05:39:01;;;;;;;2.65;0.95;;;;;;;;;;4953536;29;20039;-60
2023/01/09 05:41:28;;;;;;;1.92;0.90;;;;;;;;;;4954757;28;20047;-62
2023/01/09 05:43:54;;;;;;;3.83;0.75;;;;;;;;;;4953690;29;20110;-60
2023/01/09 05:46:21;;;;;;;2.92;1.23;;;;;;;;;;4954190;29;20419;-60
2023/01/09 05:48:47;;;;;;;2.92;1.00;;;;;;;;;;4953501;29;20039;-60
2023/01/09 05:51:14;;;;;;;3.55;1.20;;;;;;;;;;4954765;29;20051;-60
2023/01/09 05:53:40;;;;;;;6.57;1.10;;;;;;;;;;4953577;29;20051;-60
2023/01/09 05:56:06;;;;;;;4.40;1.00;;;;;;;;;;4955241;29;20043;-62
2023/01/09 05:58:33;;;;;;;4.75;1.10;;;;;;;;;;4955750;29;20051;-60
2023/01/09 06:00:59;;;;;;;4.55;1.08;;;;;;;;;;4953634;29;20050;-60
2023/01/09 06:03:26;;;;;;;5.00;1.48;;;;;;;;;;4954646;29;20385;-60
2023/01/09 06:05:52;;;;;;;4.85;1.48;;;;;;;;;;4954192;29;20043;-60
2023/01/09 06:08:19;;;;;;;2.72;1.23;;;;;;;;;;4954704;28;20042;-61
2023/01/09 06:10:46;;;;;;;4.15;1.10;;;;;;;;;;4955925;29;20043;-62
2023/01/09 06:13:12;;;;;;;4.93;1.50;;;;;;;;;;4957024;28;20058;-60
2023/01/09 06:15:39;;;;;;;6.10;1.23;;;;;;;;;;4956000;29;20094;-61
2023/01/09 06:18:05;;;;;;;3.42;1.40;;;;;;;;;;4956534;29;20074;-61
2023/01/09 06:20:31;;;;;;;4.43;1.25;;;;;;;;;;4955989;29;20407;-61
2023/01/09 06:22:58;;;;;;;6.47;1.30;;;;;;;;;;4956264;29;20098;-61
2023/01/09 06:25:25;;;;;;;7.38;1.52;;;;;;;;;;4955985;29;20456;-61
2023/01/09 06:27:51;;;;;;;3.05;1.30;;;;;;;;;;4956456;28;20061;-61
2023/01/09 06:30:18;;;;;;;5.10;1.88;;;;;;;;;;4956947;29;20043;-61
2023/01/09 06:32:46;;;;;;;5.35;1.45;;;;;;;;;;4956564;28;20522;-61
2023/01/09 06:35:13;;;;;;;6.38;1.77;;;;;;;;;;4955565;28;20063;-61
2023/01/09 06:37:39;;;;;;;3.67;1.50;;;;;;;;;;4955364;28;20507;-60
2023/01/09 06:40:06;;;;;;;4.90;1.70;;;;;;;;;;4956393;29;20039;-61
2023/01/09 06:42:32;;;;;;;5.32;1.50;;;;;;;;;;4960212;29;20408;-60
2023/01/09 06:44:59;;;;;;;5.03;1.65;;;;;;;;;;4963462;29;20054;-60
2023/01/09 06:47:25;;;;;;;5.47;1.30;;;;;;;;;;4964313;29;20043;-59
2023/01/09 06:49:51;;;;;;;5.45;1.45;;;;;;;;;;4961771;29;20106;-58
2023/01/09 06:52:18;;;;;;;3.67;1.40;;;;;;;;;;4961668;29;20062;-60
2023/01/09 06:54:44;;;;;;;4.30;1.35;;;;;;;;;;4961948;29;20114;-61
2023/01/09 06:57:13;;;;;;;3.55;1.23;;;;;;;;;;4962689;29;20051;-61
2023/01/09 06:59:39;;;;;;;5.60;1.20;;;;;;;;;;4960252;29;20043;-59
2023/01/09 07:02:13;;;;;;;4.25;1.23;;;;;;;;;;4961819;29;20043;-60
2023/01/09 07:04:40;;;;;;;2.25;1.00;;;;;;;;;;4961178;28;20047;-60
2023/01/09 07:07:06;;;;;;;6.72;1.60;;;;;;;;;;4961023;29;20051;-60
2023/01/09 07:09:33;;;;;;;2.55;1.10;;;;;;;;;;4961946;29;20043;-60
2023/01/09 07:11:59;;;;;;;3.85;1.00;;;;;;;;;;4961485;29;20051;-60
2023/01/09 07:14:26;;;;;;;3.17;0.75;;;;;;;;;;4958334;29;20082;-60
2023/01/09 07:16:52;;;;;;;3.10;0.98;;;;;;;;;;4958705;29;20102;-60
2023/01/09 07:19:18;;;;;;;3.25;0.88;;;;;;;;;;4959706;29;20047;-60
2023/01/09 07:21:45;;;;;;;1.75;1.02;;;;;;;;;;4960015;29;20046;-60
2023/01/09 07:24:11;;;;;;;2.03;0.93;;;;;;;;;;4958920;29;20043;-60
2023/01/09 07:26:37;;;;;;;1.70;0.90;;;;;;;;;;4955925;29;20500;-60
2023/01/09 07:29:04;;;;;;;2.83;1.02;;;;;;;;;;4956786;29;20114;-60
2023/01/09 07:31:30;;;;;;;2.40;1.00;;;;;;;;;;4955636;29;20047;-60
2023/01/09 07:33:57;;;;;;;2.88;0.82;;;;;;;;;;4939626;29;20492;-61
2023/01/09 07:36:23;;;;;;;3.78;0.93;;;;;;;;;;4957115;29;20067;-59
2023/01/09 07:38:50;;;;;;;2.67;0.90;;;;;;;;;;4955411;29;20043;-60
2023/01/09 07:41:16;;;;;;;7.15;1.25;;;;;;;;;;4955348;29;20048;-59
2023/01/09 07:43:43;;;;;;;3.40;0.82;;;;;;;;;;4956759;29;20098;-61
2023/01/09 07:46:09;;;;;;;5.78;1.50;;;;;;;;;;4956171;29;20058;-59
2023/01/09 07:48:35;;;;;;;3.00;1.20;;;;;;;;;;4955260;29;20047;-59
2023/01/09 07:51:02;;;;;;;4.28;1.45;;;;;;;;;;4955178;28;20043;-59
2023/01/09 07:53:28;;;;;;;5.18;1.17;;;;;;;;;;4956378;28;20059;-60
2023/01/09 07:55:55;;;;;;;6.03;1.20;;;;;;;;;;4954603;29;20050;-59
2023/01/09 07:58:21;;;;;;;3.03;1.27;;;;;;;;;;4956253;29;20076;-60
2023/01/09 08:00:49;;;;;;;4.35;1.13;;;;;;;;;;4956579;29;20094;-56
2023/01/09 08:03:15;;;;;;;2.95;1.30;;;;;;;;;;4955368;29;20043;-59
2023/01/09 08:05:42;;;;;;;6.43;1.50;;;;;;;;;;4955029;29;20042;-59
2023/01/09 08:08:08;;;;;;;3.92;1.10;;;;;;;;;;4955557;29;20091;-57
2023/01/09 08:10:34;;;;;;;3.20;0.80;;;;;;;;;;4956617;29;20109;-58
2023/01/09 08:13:01;;;;;;;1.40;0.82;;;;;;;;;;4955038;29;20559;-60
2023/01/09 08:15:27;;;;;;;2.75;0.82;;;;;;;;;;4955205;29;20043;-59
2023/01/09 08:17:54;;;;;;;1.85;0.80;;;;;;;;;;4956421;29;20047;-59
2023/01/09 08:20:20;;;;;;;2.63;0.80;;;;;;;;;;4956159;29;20047;-59
2023/01/09 08:22:50;;;;;;;1.75;0.70;;;;;;;;;;4956497;29;20047;-59
2023/01/09 08:25:17;;;;;;;1.80;0.80;;;;;;;;;;4954564;29;20618;-58
2023/01/09 08:27:43;;;;;;;1.63;0.75;;;;;;;;;;4955476;29;20075;-59
2023/01/09 08:30:10;;;;;;;2.35;0.90;;;;;;;;;;4956102;29;20043;-59
2023/01/09 08:32:37;;;;;;;1.67;0.80;;;;;;;;;;4954799;29;20051;-58
2023/01/09 08:35:04;;;;;;;1.85;0.75;;;;;;;;;;4954587;29;20454;-61
2023/01/09 08:37:30;;;;;;;2.70;1.02;;;;;;;;;;4954445;29;20147;-60
2023/01/09 08:39:57;;;;;;;4.70;1.10;;;;;;;;;;4955710;29;20047;-60
2023/01/09 08:47:54;;;;;;;2.17;0.95;;;;;;;;;;4955599;29;20055;-61
2023/01/09 08:50:21;;;;;;;2.90;0.90;;;;;;;;;;4955353;28;20094;-60
2023/01/09 08:52:47;;;;;;;1.63;0.90;;;;;;;;;;4955797;29;20047;-59
2023/01/09 08:55:14;;;;;;;2.90;1.08;;;;;;;;;;4953679;29;20432;-61
2023/01/09 08:57:48;;;;;;;3.10;1.00;;;;;;;;;;4955453;29;20052;-61
2023/01/09 09:00:15;;;;;;;4.03;1.17;;;;;;;;;;4955560;28;20476;-61
2023/01/09 09:02:41;;;;;;;2.85;1.00;;;;;;;;;;4953466;28;20514;-61
2023/01/09 09:05:08;;;;;;;3.97;1.40;;;;;;;;;;4954747;28;20126;-60
2023/01/09 09:07:35;;;;;;;4.03;1.05;;;;;;;;;;4955263;28;20043;-61
2023/01/09 09:10:01;;;;;;;3.22;1.13;;;;;;;;;;4955404;28;20058;-61
2023/01/09 09:12:29;;;;;;;2.20;0.88;;;;;;;;;;4954882;29;20047;-61
2023/01/09 09:15:11;;;;;;;5.07;1.10;;;;;;;;;;4953261;29;20055;-61
2023/01/09 09:17:39;;;;;;;2.53;0.90;;;;;;;;;;4953774;29;20433;-61
2023/01/09 09:20:06;;;;;;;3.17;1.20;;;;;;;;;;4954819;28;20053;-61
2023/01/09 09:22:32;;;;;;;3.92;1.30;;;;;;;;;;4953543;29;20051;-61
2023/01/09 09:25:03;;;;;;;5.05;1.02;;;;;;;;;;4954425;29;20102;-61
2023/01/09 09:27:30;;;;;;;4.80;1.20;;;;;;;;;;4955431;28;20047;-60
2023/01/09 09:29:57;;;;;;;4.25;1.50;;;;;;;;;;4955507;28;20047;-61
2023/01/09 09:32:23;;;;;;;3.60;1.33;;;;;;;;;;4955721;29;20043;-60
2023/01/09 10:38:08;;;;;;;1.17;0.77;;;;;;;;;;5027814;28;20484;-55
2023/01/09 10:42:02;;;;;;;2.65;1.15;;;;;;;;;;4942045;28;3065566;-51
2023/01/09 10:47:24;;;;;;;4.07;1.10;;;;;;;;;;7428743;19;20345;-49
2023/01/09 10:49:51;;;;;;;1.48;0.98;;;;;;;;;;7426477;19;20018;-52
2023/01/09 10:52:19;;;;;;;1.65;1.17;;;;;;;;;;7425956;19;20010;-53
2023/01/09 10:54:56;;;;;;;2.10;1.10;;;;;;;;;;7425932;19;20491;-51
2023/01/09 10:57:32;;;;;;;1.67;1.30;;;;;;;;;;7423632;19;20030;-53
2023/01/09 10:59:59;;;;;;;0.88;0.80;;;;;;;;;;7425897;19;20457;-52
2023/01/09 11:02:25;;;;;;;1.08;0.98;;;;;;;;;;7429533;19;20010;-52
2023/01/09 11:04:52;;;;;;;1.00;0.90;;;;;;;;;;7429228;19;20027;-51
2023/01/09 11:07:21;;;;;;;1.63;1.27;;;;;;;;;;7429115;19;20418;-50
2023/01/09 11:10:00;;;;;;;1.13;1.00;;;;;;;;;;7430821;19;20031;-52
2023/01/09 11:12:28;;;;;;;1.10;1.00;;;;;;;;;;7430174;19;20006;-52
2023/01/09 11:14:54;;;;;;;1.27;1.00;;;;;;;;;;7433778;19;20034;-50
2023/01/09 11:17:24;;;;;;;1.40;1.00;;;;;;;;;;7428062;19;20013;-51
2023/01/09 11:20:04;;;;;;;1.00;0.90;;;;;;;;;;7430433;19;20010;-50
2023/01/09 11:22:43;;;;;;;1.50;1.10;;;;;;;;;;7429867;19;20002;-51
2023/01/09 11:25:11;;;;;;;0.98;0.95;;;;;;;;;;7429250;19;20352;-50
2023/01/09 11:27:38;;;;;;;1.27;1.00;;;;;;;;;;7427342;19;20014;-51
2023/01/09 11:30:04;;;;;;;0.70;0.70;;;;;;;;;;7429536;19;20007;-53
2023/01/09 11:32:31;;;;;;;2.50;1.10;;;;;;;;;;7432468;19;20010;-53
2023/01/09 11:34:58;;;;;;;0.80;0.80;;;;;;;;;;7429903;19;20496;-51
2023/01/09 11:37:28;;;;;;;1.13;0.73;;;;;;;;;;7427501;19;20378;-58
2023/01/09 11:39:56;;;;;;;1.27;1.17;;;;;;;;;;7429350;19;20017;-48
2023/01/09 11:42:49;;;;;;;1.33;0.90;;;;;;;;;;7429110;19;19998;-48
2023/01/09 11:45:17;;;;;;;1.02;0.93;;;;;;;;;;7428690;19;20010;-49
2023/01/09 11:47:44;;;;;;;1.25;1.15;;;;;;;;;;7427156;19;20011;-50
2023/01/09 11:50:36;;;;;;;0.68;0.68;;;;;;;;;;7429232;19;20361;-50
2023/01/09 11:53:06;;;;;;;1.25;0.80;;;;;;;;;;7428356;19;20480;-54
2023/01/09 11:55:32;;;;;;;1.05;0.93;;;;;;;;;;7431368;19;20010;-67
2023/01/09 12:02:37;;;;;;;2.90;0.90;;;;;;;;;;7433443;19;20345;-68
2023/01/09 12:05:15;;;;;;;1.30;0.88;;;;;;;;;;7308503;19;69837;-66
2023/01/09 12:07:53;;;;;;;1.63;1.02;;;;;;;;;;7340031;19;70678;-67
